createdAt,value
2019-04-25T00:00:49.009Z,15.93
2019-04-25T00:03:18.582Z,18.23
2019-04-25T00:05:47.764Z,11.37
2019-04-25T00:08:16.944Z,14.57
2019-04-25T00:10:47.626Z,14.45
2019-04-25T00:13:16.668Z,12.80
2019-04-25T00:15:47.040Z,15.88
2019-04-25T00:18:15.098Z,16.50
2019-04-25T00:20:47.351Z,14.15
2019-04-25T00:23:17.243Z,14.00
2019-04-25T00:25:55.213Z,13.48
2019-04-25T00:28:24.554Z,16.10
2019-04-25T00:37:44.079Z,13.47
2019-04-25T00:40:11.898Z,13.50
2019-04-25T00:42:42.787Z,12.93
2019-04-25T00:45:09.788Z,11.95
2019-04-25T00:47:39.012Z,12.10
2019-04-25T00:50:08.237Z,16.48
2019-04-25T00:52:37.508Z,11.95
2019-04-25T00:55:06.707Z,12.00
2019-04-25T00:57:35.973Z,12.65
2019-04-25T01:00:21.636Z,16.53
2019-04-25T01:02:52.487Z,15.93
2019-04-25T01:05:19.614Z,15.45
2019-04-25T01:07:50.052Z,14.50
2019-04-25T01:10:19.243Z,18.65
2019-04-25T01:12:48.404Z,17.90
2019-04-25T01:15:18.885Z,21.33
2019-04-25T01:17:48.871Z,15.75
2019-04-25T01:20:17.333Z,17.57
2019-04-25T01:22:47.188Z,13.83
2019-04-25T01:25:15.775Z,17.37
2019-04-25T01:27:46.055Z,17.47
2019-04-25T01:30:14.196Z,17.70
2019-04-25T01:32:44.629Z,16.67
2019-04-25T01:35:18.012Z,13.30
2019-04-25T01:37:54.834Z,22.30
2019-04-25T01:40:33.426Z,19.63
2019-04-25T01:43:26.065Z,15.70
2019-04-25T01:45:56.037Z,18.23
2019-04-25T01:48:24.914Z,19.63
2019-04-25T01:50:54.591Z,16.47
2019-04-25T01:53:24.145Z,14.90
2019-04-25T01:56:00.662Z,18.17
2019-04-25T01:58:23.381Z,11.10
2019-04-25T02:00:52.062Z,16.07
2019-04-25T02:03:20.197Z,14.00
2019-04-25T02:05:49.440Z,16.37
2019-04-25T02:08:18.589Z,21.10
2019-04-25T02:10:50.855Z,12.67
2019-04-25T02:13:19.999Z,16.53
2019-04-25T02:15:49.169Z,16.77
2019-04-25T02:18:18.389Z,16.13
2019-04-25T02:20:47.577Z,14.93
2019-04-25T02:23:16.773Z,16.20
2019-04-25T02:25:45.976Z,16.10
2019-04-25T02:28:15.854Z,19.93
2019-04-25T02:30:45.376Z,18.20
2019-04-25T02:33:14.196Z,26.07
2019-04-25T02:35:45.724Z,22.47
2019-04-25T02:38:14.317Z,15.67
2019-04-25T02:40:41.226Z,19.70
2019-04-25T02:43:10.445Z,17.93
2019-04-25T02:45:44.324Z,22.30
2019-04-25T02:48:20.631Z,19.27
2019-04-25T02:50:56.480Z,18.10
2019-04-25T02:53:29.431Z,18.60
2019-04-25T02:55:59.677Z,17.33
2019-04-25T02:58:27.857Z,23.27
2019-04-25T03:01:08.249Z,21.57
2019-04-25T03:03:26.544Z,21.27
2019-04-25T03:05:57.352Z,16.90
2019-04-25T03:08:25.004Z,16.97
2019-04-25T03:10:54.423Z,21.43
2019-04-25T03:13:24.650Z,21.57
2019-04-25T03:15:53.557Z,20.13
2019-04-25T03:18:21.825Z,11.57
2019-04-25T03:20:55.019Z,17.00
2019-04-25T03:23:29.682Z,16.57
2019-04-25T03:25:59.211Z,13.43
2019-04-25T03:28:28.465Z,15.47
2019-04-25T03:31:01.417Z,12.73
2019-04-25T03:33:28.015Z,19.17
2019-04-25T03:35:57.225Z,14.73
2019-04-25T03:38:26.515Z,13.93
2019-04-25T03:40:55.704Z,15.70
2019-04-25T03:43:24.932Z,17.87
2019-04-25T03:45:54.097Z,20.57
2019-04-25T03:48:25.195Z,14.90
2019-04-25T03:50:54.055Z,16.33
2019-04-25T03:53:23.594Z,15.70
2019-04-25T03:55:53.951Z,18.40
2019-04-25T03:58:23.967Z,17.30
2019-04-25T04:00:51.830Z,19.07
2019-04-25T04:03:21.041Z,14.63
2019-04-25T04:05:50.391Z,18.43
2019-04-25T04:08:19.570Z,21.53
2019-04-25T04:10:50.089Z,17.30
2019-04-25T04:13:19.253Z,13.27
2019-04-25T04:15:49.726Z,15.57
2019-04-25T04:18:27.031Z,31.93
2019-04-25T04:21:09.586Z,17.80
2019-04-25T04:23:43.625Z,15.23
2019-04-25T04:26:13.668Z,16.30
2019-04-25T04:28:43.528Z,14.58
2019-04-25T04:31:12.236Z,18.50
2019-04-25T04:33:40.582Z,16.83
2019-04-25T04:36:09.808Z,21.77
2019-04-25T04:38:39.002Z,19.45
2019-04-25T04:41:08.276Z,15.48
2019-04-25T04:43:37.521Z,24.10
2019-04-25T04:46:06.716Z,18.80
2019-04-25T04:48:36.040Z,21.02
2019-04-25T04:51:05.264Z,21.65
2019-04-25T04:53:35.834Z,19.05
2019-04-25T04:56:04.229Z,26.55
2019-04-25T04:58:34.290Z,14.73
2019-04-25T05:01:03.605Z,18.85
2019-04-25T05:03:41.380Z,15.88
2019-04-25T05:06:25.069Z,19.75
2019-04-25T05:08:57.657Z,14.10
2019-04-25T05:11:26.956Z,17.25
2019-04-25T05:13:56.282Z,17.75
2019-04-25T05:16:25.484Z,18.82
2019-04-25T05:18:55.298Z,26.93
2019-04-25T05:21:25.259Z,21.10
2019-04-25T05:23:54.493Z,23.52
2019-04-25T05:26:25.042Z,18.57
2019-04-25T05:28:54.935Z,18.30
2019-04-25T05:31:26.995Z,19.92
2019-04-25T05:33:56.244Z,18.80
2019-04-25T05:36:29.794Z,15.63
2019-04-25T05:38:59.013Z,16.37
2019-04-25T05:41:35.954Z,23.57
2019-04-25T05:44:04.541Z,19.42
2019-04-25T05:46:34.168Z,19.48
2019-04-25T05:49:03.503Z,21.40
2019-04-25T05:51:33.769Z,16.50
2019-04-25T05:54:01.508Z,15.38
2019-04-25T05:56:30.708Z,16.32
2019-04-25T05:58:59.927Z,18.35
2019-04-25T06:01:30.178Z,19.12
2019-04-25T06:03:59.616Z,19.62
2019-04-25T06:06:28.818Z,19.02
2019-04-25T06:09:04.876Z,20.27
2019-04-25T06:11:39.669Z,23.67
2019-04-25T06:14:13.522Z,16.82
2019-04-25T06:16:41.402Z,18.20
2019-04-25T06:19:47.783Z,17.50
2019-04-25T06:22:21.093Z,18.00
2019-04-25T06:24:54.745Z,19.02
2019-04-25T06:27:29.814Z,16.02
2019-04-25T06:30:04.181Z,21.25
2019-04-25T06:32:31.699Z,17.55
2019-04-25T06:35:00.929Z,15.38
2019-04-25T06:37:30.153Z,21.07
2019-04-25T06:40:00.590Z,18.75
2019-04-25T06:42:29.829Z,14.53
2019-04-25T06:45:04.687Z,14.65
2019-04-25T06:48:38.431Z,21.35
2019-04-25T06:51:07.658Z,13.60
2019-04-25T06:53:36.990Z,20.90
2019-04-25T06:56:06.209Z,13.93
2019-04-25T06:58:35.413Z,16.93
2019-04-25T07:01:04.667Z,14.25
2019-04-25T07:03:35.752Z,18.60
2019-04-25T07:06:04.527Z,17.37
2019-04-25T07:08:35.344Z,19.25
2019-04-25T07:11:03.919Z,16.77
2019-04-25T07:13:35.574Z,14.83
2019-04-25T07:16:03.055Z,22.30
2019-04-25T07:18:33.733Z,17.27
2019-04-25T07:21:00.603Z,12.53
2019-04-25T07:23:29.895Z,18.20
2019-04-25T07:26:05.757Z,21.57
2019-04-25T07:28:41.391Z,19.30
2019-04-25T07:31:14.924Z,18.05
2019-04-25T07:33:53.265Z,15.83
2019-04-25T07:36:23.218Z,17.10
2019-04-25T07:39:04.919Z,18.30
2019-04-25T07:41:20.238Z,18.60
2019-04-25T07:43:49.717Z,15.00
2019-04-25T07:46:18.995Z,13.00
2019-04-25T07:48:48.220Z,13.88
2019-04-25T07:51:17.437Z,14.00
2019-04-25T07:53:46.688Z,15.38
2019-04-25T07:56:15.893Z,14.83
2019-04-25T07:58:50.332Z,16.10
2019-04-25T08:01:14.362Z,16.65
2019-04-25T08:03:44.789Z,17.35
2019-04-25T08:06:15.304Z,15.05
2019-04-25T08:08:44.569Z,17.73
2019-04-25T08:11:14.139Z,22.20
2019-04-25T08:14:24.290Z,14.73
2019-04-25T08:16:55.788Z,12.40
2019-04-25T08:19:26.247Z,15.43
2019-04-25T08:21:56.768Z,16.15
2019-04-25T08:24:25.967Z,13.83
2019-04-25T08:26:58.845Z,15.88
2019-04-25T08:29:28.041Z,16.65
2019-04-25T08:31:57.228Z,21.45
2019-04-25T08:34:26.486Z,12.90
2019-04-25T08:36:55.691Z,12.88
2019-04-25T08:39:24.886Z,17.48
2019-04-25T08:41:54.188Z,14.87
2019-04-25T08:44:24.143Z,16.60
2019-04-25T08:46:53.590Z,11.90
2019-04-25T08:49:27.206Z,15.78
2019-04-25T08:51:56.743Z,20.12
2019-04-25T08:54:32.583Z,13.15
2019-04-25T08:57:04.323Z,14.07
2019-04-25T08:59:47.269Z,23.30
2019-04-25T09:02:15.648Z,15.15
2019-04-25T09:04:51.707Z,12.68
2019-04-25T09:07:20.964Z,15.05
2019-04-25T09:09:50.242Z,12.25
2019-04-25T09:12:19.491Z,15.32
2019-04-25T09:14:49.950Z,17.52
2019-04-25T09:17:19.213Z,17.17
2019-04-25T09:19:48.435Z,14.85
2019-04-25T09:22:17.654Z,23.18
2019-04-25T09:24:46.904Z,15.63
2019-04-25T09:27:16.129Z,18.07
2019-04-25T09:29:46.292Z,16.70
2019-04-25T09:32:14.612Z,19.48
2019-04-25T09:34:43.853Z,19.00
2019-04-25T09:37:14.242Z,18.48
2019-04-25T09:39:48.575Z,13.05
2019-04-25T09:42:17.756Z,18.45
2019-04-25T09:44:53.716Z,20.65
2019-04-25T09:47:23.366Z,16.87
2019-04-25T09:49:51.000Z,20.97
2019-04-25T09:52:21.706Z,17.15
2019-04-25T09:54:56.077Z,17.67
2019-04-25T09:57:33.436Z,17.45
2019-04-25T10:00:04.285Z,16.70
2019-04-25T10:02:33.516Z,17.82
2019-04-25T10:05:05.230Z,19.42
2019-04-25T10:07:34.453Z,15.68
2019-04-25T10:10:03.830Z,16.97
2019-04-25T10:12:34.217Z,19.00
2019-04-25T10:15:06.876Z,23.35
2019-04-25T10:17:37.594Z,17.55
2019-04-25T10:20:05.599Z,21.82
2019-04-25T10:22:34.804Z,20.08
2019-04-25T10:25:04.320Z,17.80
2019-04-25T10:27:33.514Z,20.62
2019-04-25T10:30:16.366Z,15.58
2019-04-25T10:32:33.455Z,21.10
2019-04-25T10:35:01.153Z,18.73
2019-04-25T10:37:30.432Z,14.05
2019-04-25T10:39:59.617Z,20.95
2019-04-25T10:42:28.837Z,21.45
2019-04-25T10:44:59.378Z,16.73
2019-04-25T10:47:28.599Z,13.35
2019-04-25T10:49:59.127Z,23.02
2019-04-25T10:52:28.266Z,15.00
2019-04-25T10:54:57.465Z,19.67
2019-04-25T10:57:26.753Z,18.17
2019-04-25T11:00:06.433Z,17.52
2019-04-25T11:02:25.189Z,24.98
2019-04-25T11:04:58.437Z,21.73
2019-04-25T11:07:27.646Z,16.90
2019-04-25T11:09:56.857Z,19.42
2019-04-25T11:12:26.093Z,30.57
2019-04-25T11:14:56.255Z,21.48
2019-04-25T11:17:24.666Z,17.82
2019-04-25T11:19:57.633Z,17.12
2019-04-25T11:22:28.092Z,18.80
2019-04-25T11:24:58.608Z,21.68
2019-04-25T11:27:29.043Z,15.68
2019-04-25T11:30:08.478Z,16.75
2019-04-25T11:32:30.088Z,12.95
2019-04-25T11:34:59.684Z,15.93
2019-04-25T11:37:28.801Z,13.00
2019-04-25T11:40:04.330Z,26.02
2019-04-25T11:42:33.858Z,15.83
2019-04-25T11:45:03.032Z,18.07
2019-04-25T11:47:31.348Z,18.77
2019-04-25T11:50:00.728Z,15.72
2019-04-25T11:52:30.424Z,15.78
2019-04-25T11:55:00.458Z,17.27
2019-04-25T11:57:29.656Z,17.02
2019-04-25T11:59:58.860Z,15.50
2019-04-25T12:02:29.393Z,16.52
2019-04-25T12:04:58.626Z,16.25
2019-04-25T12:07:27.832Z,18.95
2019-04-25T12:09:57.114Z,16.10
2019-04-25T12:12:27.626Z,20.23
2019-04-25T12:14:58.072Z,17.15
2019-04-25T12:17:27.404Z,19.57
2019-04-25T12:19:57.490Z,17.45
2019-04-25T12:22:27.245Z,11.12
2019-04-25T12:24:56.451Z,19.00
2019-04-25T12:27:28.126Z,20.55
2019-04-25T12:29:59.488Z,15.48
2019-04-25T12:32:27.908Z,19.52
2019-04-25T12:34:57.225Z,17.15
2019-04-25T12:37:26.470Z,24.05
2019-04-25T12:39:58.221Z,23.00
2019-04-25T12:42:34.370Z,17.45
2019-04-25T12:45:14.147Z,16.45
2019-04-25T12:47:45.336Z,19.12
2019-04-25T12:50:15.282Z,17.80
2019-04-25T12:52:46.608Z,14.95
2019-04-25T12:55:15.047Z,24.95
2019-04-25T12:57:44.278Z,20.70
2019-04-25T13:00:14.397Z,18.73
2019-04-25T13:02:44.734Z,17.50
2019-04-25T13:05:14.205Z,17.95
2019-04-25T13:07:42.158Z,18.20
2019-04-25T13:10:11.364Z,20.60
2019-04-25T13:12:40.554Z,17.37
2019-04-25T13:15:09.829Z,24.70
2019-04-25T13:17:38.970Z,26.37
2019-04-25T13:20:08.208Z,20.72
2019-04-25T13:22:37.424Z,21.20
2019-04-25T13:25:08.513Z,23.67
2019-04-25T13:27:44.604Z,21.00
2019-04-25T13:30:19.120Z,19.65
2019-04-25T13:32:56.512Z,22.05
2019-04-25T13:35:28.124Z,27.13
2019-04-25T13:37:57.624Z,21.27
2019-04-25T13:40:27.886Z,20.88
2019-04-25T13:42:57.979Z,25.55
2019-04-25T13:45:26.322Z,24.87
2019-04-25T13:47:55.554Z,25.20
2019-04-25T13:50:25.855Z,26.02
2019-04-25T13:52:54.020Z,17.45
2019-04-25T13:55:25.007Z,25.02
2019-04-25T13:57:54.895Z,22.10
2019-04-25T14:00:24.729Z,24.18
2019-04-25T14:02:52.412Z,19.23
2019-04-25T14:05:25.844Z,23.15
2019-04-25T14:07:53.810Z,21.33
2019-04-25T14:10:24.662Z,25.15
2019-04-25T14:12:53.591Z,19.02
2019-04-25T14:15:25.127Z,20.60
2019-04-25T14:18:00.455Z,24.72
2019-04-25T14:20:35.268Z,20.80
2019-04-25T14:23:04.863Z,34.23
2019-04-25T14:25:34.064Z,23.12
2019-04-25T14:28:05.344Z,28.55
2019-04-25T14:30:34.234Z,30.30
2019-04-25T14:33:03.467Z,25.27
2019-04-25T14:35:31.193Z,21.77
2019-04-25T14:38:00.291Z,20.00
2019-04-25T14:40:32.053Z,17.15
2019-04-25T14:43:01.309Z,24.57
2019-04-25T14:45:41.535Z,22.25
2019-04-25T14:47:59.779Z,28.92
2019-04-25T14:50:29.890Z,25.43
2019-04-25T14:52:58.188Z,31.12
2019-04-25T14:55:38.137Z,25.43
2019-04-25T14:58:11.659Z,22.58
2019-04-25T15:00:41.295Z,18.85
2019-04-25T15:03:11.785Z,23.67
2019-04-25T15:05:43.195Z,25.08
2019-04-25T15:08:10.378Z,25.92
2019-04-25T15:10:39.585Z,20.80
2019-04-25T15:13:09.152Z,22.62
2019-04-25T15:15:38.386Z,26.45
2019-04-25T15:18:07.569Z,20.25
2019-04-25T15:20:36.799Z,22.82
2019-04-25T15:23:07.328Z,25.85
2019-04-25T15:25:37.048Z,28.17
2019-04-25T15:28:05.835Z,23.98
2019-04-25T15:30:35.229Z,24.72
2019-04-25T15:33:04.444Z,21.17
2019-04-25T15:35:39.601Z,25.08
2019-04-25T15:38:12.411Z,21.35
2019-04-25T15:40:46.699Z,27.40
2019-04-25T15:43:22.880Z,22.37
2019-04-25T15:45:56.941Z,18.82
2019-04-25T15:48:26.442Z,30.97
2019-04-25T15:50:55.348Z,19.10
2019-04-25T15:53:24.678Z,22.70
2019-04-25T15:55:55.341Z,23.62
2019-04-25T15:58:25.316Z,33.25
2019-04-25T16:00:53.782Z,18.45
2019-04-25T16:03:22.990Z,17.65
2019-04-25T16:05:52.307Z,22.62
2019-04-25T16:08:21.543Z,23.57
2019-04-25T16:10:50.815Z,21.05
2019-04-25T16:13:20.049Z,21.80
2019-04-25T16:15:49.269Z,19.27
2019-04-25T16:18:18.501Z,23.80
2019-04-25T16:20:47.840Z,30.72
2019-04-25T16:23:17.084Z,28.67
2019-04-25T16:25:46.359Z,25.57
2019-04-25T16:28:15.554Z,18.00
2019-04-25T16:30:46.174Z,20.10
2019-04-25T16:33:15.412Z,21.68
2019-04-25T16:35:44.608Z,22.55
2019-04-25T16:38:15.016Z,22.65
2019-04-25T16:40:44.232Z,18.45
2019-04-25T16:43:14.849Z,23.22
2019-04-25T16:45:44.056Z,24.20
2019-04-25T16:48:13.317Z,19.10
2019-04-25T16:50:42.556Z,18.02
2019-04-25T16:53:11.782Z,32.45
2019-04-25T16:55:40.977Z,25.57
2019-04-25T16:58:10.177Z,28.77
2019-04-25T17:00:43.721Z,20.10
2019-04-25T17:03:13.385Z,22.13
2019-04-25T17:05:43.028Z,20.92
2019-04-25T17:08:13.272Z,24.98
2019-04-25T17:10:42.541Z,20.50
2019-04-25T17:13:11.885Z,21.27
2019-04-25T17:15:46.742Z,22.35
2019-04-25T17:18:19.292Z,24.18
2019-04-25T17:20:52.834Z,20.92
2019-04-25T17:23:22.044Z,23.55
2019-04-25T17:25:51.277Z,22.48
2019-04-25T17:28:21.420Z,14.15
2019-04-25T17:30:55.480Z,17.40
2019-04-25T17:33:31.261Z,21.17
2019-04-25T17:36:05.811Z,25.68
2019-04-25T17:38:39.671Z,136.92
2019-04-25T17:41:09.278Z,27.13
2019-04-25T17:43:38.600Z,32.80
2019-04-25T17:46:07.809Z,43.87
2019-04-25T17:48:37.004Z,40.90
2019-04-25T17:51:07.498Z,41.08
2019-04-25T17:53:36.684Z,35.08
2019-04-25T17:56:05.928Z,30.55
2019-04-25T17:58:36.722Z,31.50
2019-04-25T18:01:05.102Z,33.02
2019-04-25T18:03:34.984Z,39.78
2019-04-25T18:06:03.567Z,38.40
2019-04-25T18:08:33.407Z,37.25
2019-04-25T18:11:03.329Z,40.08
2019-04-25T18:13:34.321Z,39.58
2019-04-25T18:16:09.379Z,30.88
2019-04-25T18:18:45.777Z,26.68
2019-04-25T18:21:16.311Z,26.52
2019-04-25T18:23:53.042Z,40.20
2019-04-25T18:26:26.681Z,28.52
2019-04-25T18:29:01.305Z,28.65
2019-04-25T18:31:30.518Z,32.63
2019-04-25T18:34:01.172Z,32.10
2019-04-25T18:36:37.909Z,40.55
2019-04-25T18:39:14.782Z,26.35
2019-04-25T18:41:48.160Z,32.15
2019-04-25T18:44:18.701Z,31.50
2019-04-25T18:46:47.932Z,34.92
2019-04-25T18:49:17.147Z,33.25
2019-04-25T18:51:56.440Z,43.33
2019-04-25T18:54:31.153Z,46.48
2019-04-25T18:57:13.862Z,34.58
2019-04-25T18:59:49.125Z,35.95
2019-04-25T19:02:23.810Z,32.08
2019-04-25T19:05:36.246Z,33.67
2019-04-25T19:08:06.173Z,32.85
2019-04-25T19:10:35.381Z,45.43
2019-04-25T19:13:12.568Z,37.05
2019-04-25T19:15:35.195Z,40.15
2019-04-25T19:18:04.390Z,32.15
2019-04-25T19:20:34.822Z,35.35
2019-04-25T19:23:04.529Z,45.83
2019-04-25T19:25:33.793Z,49.00
2019-04-25T19:28:03.019Z,47.20
2019-04-25T19:30:32.229Z,50.83
2019-04-25T19:33:01.460Z,39.20
2019-04-25T19:35:31.919Z,35.35
2019-04-25T19:38:01.592Z,34.98
2019-04-25T19:40:36.492Z,40.08
2019-04-25T19:43:11.118Z,47.35
2019-04-25T19:45:42.588Z,43.98
2019-04-25T19:48:11.101Z,37.40
2019-04-25T19:50:40.550Z,41.92
2019-04-25T19:53:09.582Z,35.63
2019-04-25T19:55:38.802Z,32.58
2019-04-25T20:12:44.008Z,28.55
2019-04-25T20:15:12.482Z,38.05
2019-04-25T20:17:47.616Z,34.75
2019-04-25T20:20:17.267Z,32.08
2019-04-25T20:22:48.172Z,30.02
2019-04-25T20:25:19.369Z,38.02
2019-04-25T20:27:50.804Z,36.63
2019-04-25T20:30:19.871Z,36.95
2019-04-25T20:32:51.569Z,27.15
2019-04-25T20:35:20.832Z,34.27
2019-04-25T20:37:50.048Z,34.80
2019-04-25T20:40:19.646Z,32.75
2019-04-25T20:42:49.707Z,36.73
2019-04-25T20:45:18.167Z,32.23
2019-04-25T20:47:47.926Z,36.93
2019-04-25T20:50:16.688Z,36.65
2019-04-25T20:52:48.608Z,38.95
2019-04-25T20:55:16.969Z,29.67
2019-04-25T20:57:46.912Z,25.85
2019-04-25T21:00:27.969Z,33.18
2019-04-25T21:02:57.467Z,34.85
2019-04-25T21:05:26.482Z,31.42
2019-04-25T21:07:55.768Z,31.25
2019-04-25T21:10:25.006Z,34.13
2019-04-25T21:12:54.270Z,32.65
2019-04-25T21:16:03.317Z,32.55
2019-04-25T21:18:37.512Z,32.13
2019-04-25T21:21:06.743Z,27.73
2019-04-25T21:23:35.969Z,24.77
2019-04-25T21:26:05.256Z,42.08
2019-04-25T21:28:34.480Z,34.88
2019-04-25T21:31:03.697Z,34.43
2019-04-25T21:33:32.926Z,27.80
2019-04-25T21:36:02.156Z,28.32
2019-04-25T21:38:31.401Z,32.67
2019-04-25T21:41:06.251Z,27.17
2019-04-25T21:43:41.651Z,27.65
2019-04-25T21:46:12.122Z,34.90
2019-04-25T21:48:41.339Z,38.38
2019-04-25T21:51:16.086Z,30.62
2019-04-25T21:53:45.312Z,28.73
2019-04-25T21:56:14.516Z,29.47
2019-04-25T21:58:44.568Z,39.00
2019-04-25T22:01:16.572Z,34.27
2019-04-25T22:03:45.806Z,32.67
2019-04-25T22:06:17.677Z,31.33
2019-04-25T22:08:44.306Z,34.08
2019-04-25T22:11:13.628Z,38.02
2019-04-25T22:13:42.798Z,34.92
2019-04-25T22:16:12.012Z,30.95
2019-04-25T22:18:41.361Z,29.48
2019-04-25T22:21:10.475Z,35.63
2019-04-25T22:23:39.782Z,30.20
2019-04-25T22:26:08.960Z,36.55
2019-04-25T22:28:39.539Z,35.00
2019-04-25T22:31:12.701Z,31.00
2019-04-25T22:33:47.437Z,29.35
2019-04-25T22:36:18.613Z,25.67
2019-04-25T22:38:52.193Z,28.42
2019-04-25T22:41:21.397Z,31.33
2019-04-25T22:43:52.138Z,24.18
2019-04-25T22:46:25.890Z,24.30
2019-04-25T22:48:50.723Z,24.55
2019-04-25T22:51:19.961Z,23.18
2019-04-25T22:53:50.477Z,27.67
2019-04-25T22:56:19.681Z,25.53
2019-04-25T22:58:48.910Z,23.03
2019-04-25T23:02:25.246Z,30.10
2019-04-25T23:05:05.396Z,25.33
2019-04-25T23:07:28.309Z,20.25
2019-04-25T23:09:57.508Z,23.90
2019-04-25T23:12:27.580Z,22.82
2019-04-25T23:14:56.778Z,29.33
2019-04-25T23:17:26.024Z,26.47
2019-04-25T23:19:55.268Z,29.55
2019-04-25T23:22:24.469Z,28.67
2019-04-25T23:24:58.320Z,34.70
2019-04-25T23:27:36.078Z,26.45
2019-04-25T23:30:06.443Z,28.63
2019-04-25T23:32:34.984Z,32.10
2019-04-25T23:35:14.770Z,33.10
2019-04-25T23:37:34.681Z,34.20
2019-04-25T23:40:05.133Z,32.30
2019-04-25T23:42:33.393Z,31.77
2019-04-25T23:45:02.652Z,39.05
2019-04-25T23:47:31.873Z,34.77
2019-04-25T23:50:01.078Z,22.97
2019-04-25T23:52:30.267Z,21.47
2019-04-25T23:54:59.474Z,27.33
2019-04-25T23:57:28.729Z,29.27
2019-04-25T23:59:57.953Z,34.90
